sensor_id;sensor_type;location;lat;lon;timestamp;temperature;humidity
57106;DHT22;62662;56.788;23.942;2022-11-14T00:01:10;2.50;99.90
57106;DHT22;62662;56.788;23.942;2022-11-14T00:03:38;2.50;99.90
57106;DHT22;62662;56.788;23.942;2022-11-14T00:06:06;2.60;99.90
57106;DHT22;62662;56.788;23.942;2022-11-14T00:08:34;2.70;99.90
57106;DHT22;62662;56.788;23.942;2022-11-14T00:11:01;2.70;99.90
57106;DHT22;62662;56.788;23.942;2022-11-14T00:13:28;2.60;99.90
57106;DHT22;62662;56.788;23.942;2022-11-14T00:15:55;2.60;99.90
57106;DHT22;62662;56.788;23.942;2022-11-14T00:18:22;2.60;99.90
57106;DHT22;62662;56.788;23.942;2022-11-14T00:20:51;2.50;99.90
57106;DHT22;62662;56.788;23.942;2022-11-14T00:23:19;2.50;99.90
57106;DHT22;62662;56.788;23.942;2022-11-14T00:25:47;2.50;99.90
57106;DHT22;62662;56.788;23.942;2022-11-14T00:28:14;2.50;99.90
57106;DHT22;62662;56.788;23.942;2022-11-14T00:30:41;2.50;99.90
57106;DHT22;62662;56.788;23.942;2022-11-14T00:33:11;2.60;99.90
57106;DHT22;62662;56.788;23.942;2022-11-14T00:35:50;2.60;99.90
57106;DHT22;62662;56.788;23.942;2022-11-14T00:38:17;2.50;99.90
57106;DHT22;62662;56.788;23.942;2022-11-14T00:40:44;2.50;99.90
57106;DHT22;62662;56.788;23.942;2022-11-14T00:43:11;2.60;99.90
57106;DHT22;62662;56.788;23.942;2022-11-14T00:45:37;2.60;99.90
57106;DHT22;62662;56.788;23.942;2022-11-14T00:48:05;2.70;99.90
57106;DHT22;62662;56.788;23.942;2022-11-14T00:50:32;2.70;99.90
57106;DHT22;62662;56.788;23.942;2022-11-14T00:52:59;2.60;99.90
57106;DHT22;62662;56.788;23.942;2022-11-14T00:55:25;2.60;99.90
57106;DHT22;62662;56.788;23.942;2022-11-14T00:57:52;2.60;99.90
57106;DHT22;62662;56.788;23.942;2022-11-14T01:00:19;2.50;99.90
57106;DHT22;62662;56.788;23.942;2022-11-14T01:02:46;2.50;99.90
57106;DHT22;62662;56.788;23.942;2022-11-14T01:05:13;2.60;99.90
57106;DHT22;62662;56.788;23.942;2022-11-14T01:07:40;2.40;99.90
57106;DHT22;62662;56.788;23.942;2022-11-14T01:10:08;2.40;99.90
57106;DHT22;62662;56.788;23.942;2022-11-14T01:12:35;2.30;99.90
57106;DHT22;62662;56.788;23.942;2022-11-14T01:15:02;2.50;99.90
57106;DHT22;62662;56.788;23.942;2022-11-14T01:17:29;2.50;99.90
57106;DHT22;62662;56.788;23.942;2022-11-14T01:19:56;2.40;99.90
57106;DHT22;62662;56.788;23.942;2022-11-14T01:22:23;2.30;99.90
57106;DHT22;62662;56.788;23.942;2022-11-14T01:24:50;2.20;99.90
57106;DHT22;62662;56.788;23.942;2022-11-14T01:27:17;2.10;99.90
57106;DHT22;62662;56.788;23.942;2022-11-14T01:29:44;2.10;99.90
57106;DHT22;62662;56.788;23.942;2022-11-14T01:32:11;2.20;99.90
57106;DHT22;62662;56.788;23.942;2022-11-14T01:34:38;2.10;99.90
57106;DHT22;62662;56.788;23.942;2022-11-14T01:37:05;2.20;99.90
57106;DHT22;62662;56.788;23.942;2022-11-14T01:39:32;2.10;99.90
57106;DHT22;62662;56.788;23.942;2022-11-14T01:41:59;2.20;99.90
57106;DHT22;62662;56.788;23.942;2022-11-14T01:44:46;2.10;99.90
57106;DHT22;62662;56.788;23.942;2022-11-14T01:47:20;2.20;99.90
57106;DHT22;62662;56.788;23.942;2022-11-14T01:49:52;2.10;99.90
57106;DHT22;62662;56.788;23.942;2022-11-14T01:54:53;2.00;99.90
57106;DHT22;62662;56.788;23.942;2022-11-14T01:57:26;2.00;99.90
57106;DHT22;62662;56.788;23.942;2022-11-14T01:59:56;2.00;99.90
57106;DHT22;62662;56.788;23.942;2022-11-14T02:02:25;1.90;99.90
57106;DHT22;62662;56.788;23.942;2022-11-14T02:04:59;2.00;99.90
57106;DHT22;62662;56.788;23.942;2022-11-14T02:07:32;2.00;99.90
57106;DHT22;62662;56.788;23.942;2022-11-14T02:10:07;2.00;99.90
57106;DHT22;62662;56.788;23.942;2022-11-14T02:12:35;1.90;99.90
57106;DHT22;62662;56.788;23.942;2022-11-14T02:15:03;1.90;99.90
57106;DHT22;62662;56.788;23.942;2022-11-14T02:17:31;1.90;99.90
57106;DHT22;62662;56.788;23.942;2022-11-14T02:22:39;2.00;99.90
57106;DHT22;62662;56.788;23.942;2022-11-14T02:25:08;1.90;99.90
57106;DHT22;62662;56.788;23.942;2022-11-14T02:27:37;1.90;99.90
57106;DHT22;62662;56.788;23.942;2022-11-14T02:30:10;2.00;99.90
57106;DHT22;62662;56.788;23.942;2022-11-14T02:32:38;1.90;99.90
57106;DHT22;62662;56.788;23.942;2022-11-14T02:35:25;1.80;99.90
57106;DHT22;62662;56.788;23.942;2022-11-14T02:37:52;2.00;99.90
57106;DHT22;62662;56.788;23.942;2022-11-14T02:40:19;1.90;99.90
57106;DHT22;62662;56.788;23.942;2022-11-14T02:42:46;1.90;99.90
57106;DHT22;62662;56.788;23.942;2022-11-14T02:45:13;1.80;99.90
57106;DHT22;62662;56.788;23.942;2022-11-14T02:47:40;1.70;99.90
57106;DHT22;62662;56.788;23.942;2022-11-14T02:50:07;1.50;99.90
57106;DHT22;62662;56.788;23.942;2022-11-14T02:52:34;1.50;99.90
57106;DHT22;62662;56.788;23.942;2022-11-14T02:55:02;1.60;99.90
57106;DHT22;62662;56.788;23.942;2022-11-14T02:57:28;1.60;99.90
57106;DHT22;62662;56.788;23.942;2022-11-14T02:59:55;1.60;99.90
57106;DHT22;62662;56.788;23.942;2022-11-14T03:02:22;1.50;99.90
57106;DHT22;62662;56.788;23.942;2022-11-14T03:04:49;1.50;99.90
57106;DHT22;62662;56.788;23.942;2022-11-14T03:07:16;1.40;99.90
57106;DHT22;62662;56.788;23.942;2022-11-14T03:09:43;1.40;99.90
57106;DHT22;62662;56.788;23.942;2022-11-14T03:12:10;1.40;99.90
57106;DHT22;62662;56.788;23.942;2022-11-14T03:14:37;1.40;99.90
57106;DHT22;62662;56.788;23.942;2022-11-14T03:17:05;1.30;99.90
57106;DHT22;62662;56.788;23.942;2022-11-14T03:19:32;1.40;99.90
57106;DHT22;62662;56.788;23.942;2022-11-14T03:21:58;1.50;99.90
57106;DHT22;62662;56.788;23.942;2022-11-14T03:24:25;1.50;99.90
57106;DHT22;62662;56.788;23.942;2022-11-14T03:26:52;1.40;99.90
57106;DHT22;62662;56.788;23.942;2022-11-14T03:29:19;1.40;99.90
57106;DHT22;62662;56.788;23.942;2022-11-14T03:31:46;1.30;99.90
57106;DHT22;62662;56.788;23.942;2022-11-14T03:34:13;1.30;99.90
57106;DHT22;62662;56.788;23.942;2022-11-14T03:36:40;1.40;99.90
57106;DHT22;62662;56.788;23.942;2022-11-14T03:39:07;1.30;99.90
57106;DHT22;62662;56.788;23.942;2022-11-14T03:41:34;1.40;99.90
57106;DHT22;62662;56.788;23.942;2022-11-14T03:44:01;1.30;99.90
57106;DHT22;62662;56.788;23.942;2022-11-14T03:46:28;1.20;99.90
57106;DHT22;62662;56.788;23.942;2022-11-14T03:48:55;1.20;99.90
57106;DHT22;62662;56.788;23.942;2022-11-14T03:51:22;1.20;99.90
57106;DHT22;62662;56.788;23.942;2022-11-14T03:53:49;1.20;99.90
57106;DHT22;62662;56.788;23.942;2022-11-14T03:56:16;1.20;99.90
57106;DHT22;62662;56.788;23.942;2022-11-14T03:58:43;1.10;99.90
57106;DHT22;62662;56.788;23.942;2022-11-14T04:01:10;1.30;99.90
57106;DHT22;62662;56.788;23.942;2022-11-14T04:03:37;1.30;99.90
57106;DHT22;62662;56.788;23.942;2022-11-14T04:06:04;1.40;99.90
57106;DHT22;62662;56.788;23.942;2022-11-14T04:08:31;1.40;99.90
57106;DHT22;62662;56.788;23.942;2022-11-14T04:10:59;1.40;99.90
57106;DHT22;62662;56.788;23.942;2022-11-14T04:13:26;1.20;99.90
57106;DHT22;62662;56.788;23.942;2022-11-14T04:15:54;1.30;99.90
57106;DHT22;62662;56.788;23.942;2022-11-14T04:18:22;1.40;99.90
57106;DHT22;62662;56.788;23.942;2022-11-14T04:20:49;1.30;99.90
57106;DHT22;62662;56.788;23.942;2022-11-14T04:23:17;1.30;99.90
57106;DHT22;62662;56.788;23.942;2022-11-14T04:25:45;1.30;99.90
57106;DHT22;62662;56.788;23.942;2022-11-14T04:28:12;1.30;99.90
57106;DHT22;62662;56.788;23.942;2022-11-14T04:30:40;1.20;99.90
57106;DHT22;62662;56.788;23.942;2022-11-14T04:33:07;1.20;99.90
57106;DHT22;62662;56.788;23.942;2022-11-14T04:35:34;1.30;99.90
57106;DHT22;62662;56.788;23.942;2022-11-14T04:38:01;1.30;99.90
57106;DHT22;62662;56.788;23.942;2022-11-14T04:40:28;1.20;99.90
57106;DHT22;62662;56.788;23.942;2022-11-14T04:42:56;1.20;99.90
57106;DHT22;62662;56.788;23.942;2022-11-14T04:45:23;1.30;99.90
57106;DHT22;62662;56.788;23.942;2022-11-14T04:47:50;1.20;99.90
57106;DHT22;62662;56.788;23.942;2022-11-14T04:50:17;1.10;99.90
57106;DHT22;62662;56.788;23.942;2022-11-14T04:52:44;1.20;99.90
57106;DHT22;62662;56.788;23.942;2022-11-14T04:55:11;1.20;99.90
57106;DHT22;62662;56.788;23.942;2022-11-14T04:57:38;1.20;99.90
57106;DHT22;62662;56.788;23.942;2022-11-14T05:00:06;1.20;99.90
57106;DHT22;62662;56.788;23.942;2022-11-14T05:02:33;1.20;99.90
57106;DHT22;62662;56.788;23.942;2022-11-14T05:05:00;1.20;99.90
57106;DHT22;62662;56.788;23.942;2022-11-14T05:07:28;1.20;99.90
57106;DHT22;62662;56.788;23.942;2022-11-14T05:09:55;1.20;99.90
57106;DHT22;62662;56.788;23.942;2022-11-14T05:12:22;1.20;99.90
57106;DHT22;62662;56.788;23.942;2022-11-14T05:14:48;1.30;99.90
57106;DHT22;62662;56.788;23.942;2022-11-14T05:17:15;1.30;99.90
57106;DHT22;62662;56.788;23.942;2022-11-14T05:19:43;1.20;99.90
57106;DHT22;62662;56.788;23.942;2022-11-14T05:22:10;1.20;99.90
57106;DHT22;62662;56.788;23.942;2022-11-14T05:24:37;1.30;99.90
57106;DHT22;62662;56.788;23.942;2022-11-14T05:27:04;1.30;99.90
57106;DHT22;62662;56.788;23.942;2022-11-14T05:29:31;1.20;99.90
57106;DHT22;62662;56.788;23.942;2022-11-14T05:31:58;1.20;99.90
57106;DHT22;62662;56.788;23.942;2022-11-14T05:34:26;1.10;99.90
57106;DHT22;62662;56.788;23.942;2022-11-14T05:36:54;1.20;99.90
57106;DHT22;62662;56.788;23.942;2022-11-14T05:39:21;1.20;99.90
57106;DHT22;62662;56.788;23.942;2022-11-14T05:41:48;1.20;99.90
57106;DHT22;62662;56.788;23.942;2022-11-14T05:44:15;1.20;99.90
57106;DHT22;62662;56.788;23.942;2022-11-14T05:46:43;1.20;99.90
57106;DHT22;62662;56.788;23.942;2022-11-14T05:49:10;1.10;99.90
57106;DHT22;62662;56.788;23.942;2022-11-14T05:51:44;1.20;99.90
57106;DHT22;62662;56.788;23.942;2022-11-14T05:54:13;1.20;99.90
57106;DHT22;62662;56.788;23.942;2022-11-14T05:56:45;1.20;99.90
57106;DHT22;62662;56.788;23.942;2022-11-14T05:59:13;1.10;99.90
57106;DHT22;62662;56.788;23.942;2022-11-14T06:02:00;1.10;99.90
57106;DHT22;62662;56.788;23.942;2022-11-14T06:04:43;1.10;99.90
57106;DHT22;62662;56.788;23.942;2022-11-14T06:08:08;1.20;99.90
57106;DHT22;62662;56.788;23.942;2022-11-14T06:10:54;1.20;99.90
57106;DHT22;62662;56.788;23.942;2022-11-14T06:13:52;1.20;99.90
57106;DHT22;62662;56.788;23.942;2022-11-14T06:16:25;1.30;99.90
57106;DHT22;62662;56.788;23.942;2022-11-14T06:18:54;1.30;99.90
57106;DHT22;62662;56.788;23.942;2022-11-14T06:21:25;1.30;99.90
57106;DHT22;62662;56.788;23.942;2022-11-14T06:23:52;1.30;99.90
57106;DHT22;62662;56.788;23.942;2022-11-14T06:26:25;1.30;99.90
57106;DHT22;62662;56.788;23.942;2022-11-14T06:28:53;1.30;99.90
57106;DHT22;62662;56.788;23.942;2022-11-14T06:31:22;1.40;99.90
57106;DHT22;62662;56.788;23.942;2022-11-14T06:33:50;1.40;99.90
57106;DHT22;62662;56.788;23.942;2022-11-14T06:36:18;1.30;99.90
57106;DHT22;62662;56.788;23.942;2022-11-14T06:38:46;1.30;99.90
57106;DHT22;62662;56.788;23.942;2022-11-14T06:41:42;1.30;99.90
57106;DHT22;62662;56.788;23.942;2022-11-14T06:44:15;1.40;99.90
57106;DHT22;62662;56.788;23.942;2022-11-14T06:46:56;1.40;99.90
57106;DHT22;62662;56.788;23.942;2022-11-14T06:49:25;1.30;99.90
57106;DHT22;62662;56.788;23.942;2022-11-14T06:52:27;1.50;99.90
57106;DHT22;62662;56.788;23.942;2022-11-14T06:55:21;1.40;99.90
57106;DHT22;62662;56.788;23.942;2022-11-14T06:57:59;1.50;99.90
57106;DHT22;62662;56.788;23.942;2022-11-14T07:00:32;1.60;99.90
57106;DHT22;62662;56.788;23.942;2022-11-14T07:03:34;1.50;99.90
57106;DHT22;62662;56.788;23.942;2022-11-14T07:44:15;1.70;99.90
57106;DHT22;62662;56.788;23.942;2022-11-14T07:51:18;1.80;99.90
57106;DHT22;62662;56.788;23.942;2022-11-14T08:03:58;1.70;99.90
57106;DHT22;62662;56.788;23.942;2022-11-14T08:06:48;1.70;99.90
57106;DHT22;62662;56.788;23.942;2022-11-14T08:09:51;1.80;99.90
57106;DHT22;62662;56.788;23.942;2022-11-14T08:12:37;1.80;99.90
57106;DHT22;62662;56.788;23.942;2022-11-14T08:16:08;1.70;99.90
57106;DHT22;62662;56.788;23.942;2022-11-14T08:22:26;0.50;99.90
57106;DHT22;62662;56.788;23.942;2022-11-14T08:29:04;2.20;99.90
57106;DHT22;62662;56.788;23.942;2022-11-14T08:31:34;2.20;99.90
57106;DHT22;62662;56.788;23.942;2022-11-14T08:34:15;2.20;99.90
57106;DHT22;62662;56.788;23.942;2022-11-14T08:37:06;2.40;99.90
57106;DHT22;62662;56.788;23.942;2022-11-14T08:39:38;2.40;99.90
57106;DHT22;62662;56.788;23.942;2022-11-14T08:42:17;2.50;99.90
57106;DHT22;62662;56.788;23.942;2022-11-14T08:45:10;2.50;99.90
57106;DHT22;62662;56.788;23.942;2022-11-14T08:47:54;2.40;99.90
57106;DHT22;62662;56.788;23.942;2022-11-14T08:50:33;2.50;99.90
57106;DHT22;62662;56.788;23.942;2022-11-14T09:08:02;2.40;99.90
57106;DHT22;62662;56.788;23.942;2022-11-14T09:15:28;2.30;99.90
57106;DHT22;62662;56.788;23.942;2022-11-14T09:18:14;2.20;99.90
57106;DHT22;62662;56.788;23.942;2022-11-14T09:20:43;3.50;99.90
57106;DHT22;62662;56.788;23.942;2022-11-14T09:23:21;2.30;99.90
57106;DHT22;62662;56.788;23.942;2022-11-14T09:26:08;2.50;99.90
57106;DHT22;62662;56.788;23.942;2022-11-14T09:32:00;2.60;99.90
57106;DHT22;62662;56.788;23.942;2022-11-14T09:34:48;2.80;99.90
57106;DHT22;62662;56.788;23.942;2022-11-14T09:37:19;2.80;99.90
57106;DHT22;62662;56.788;23.942;2022-11-14T09:44:57;2.00;99.90
57106;DHT22;62662;56.788;23.942;2022-11-14T09:50:16;3.90;99.90
57106;DHT22;62662;56.788;23.942;2022-11-14T09:53:46;3.40;99.90
57106;DHT22;62662;56.788;23.942;2022-11-14T09:56:39;5.50;99.90
57106;DHT22;62662;56.788;23.942;2022-11-14T10:12:03;3.50;99.90
57106;DHT22;62662;56.788;23.942;2022-11-14T10:25:47;3.40;99.90
57106;DHT22;62662;56.788;23.942;2022-11-14T10:35:34;3.50;99.90
57106;DHT22;62662;56.788;23.942;2022-11-14T10:38:23;3.70;99.90
57106;DHT22;62662;56.788;23.942;2022-11-14T10:41:12;4.40;99.90
57106;DHT22;62662;56.788;23.942;2022-11-14T10:44:45;3.80;99.90
57106;DHT22;62662;56.788;23.942;2022-11-14T10:47:15;3.90;99.90
57106;DHT22;62662;56.788;23.942;2022-11-14T10:49:49;3.70;99.90
57106;DHT22;62662;56.788;23.942;2022-11-14T11:24:37;3.50;99.90
57106;DHT22;62662;56.788;23.942;2022-11-14T11:27:32;3.60;99.90
57106;DHT22;62662;56.788;23.942;2022-11-14T11:33:34;3.30;99.90
57106;DHT22;62662;56.788;23.942;2022-11-14T11:36:35;3.30;99.90
57106;DHT22;62662;56.788;23.942;2022-11-14T11:39:11;3.20;99.90
57106;DHT22;62662;56.788;23.942;2022-11-14T11:44:40;3.60;99.90
57106;DHT22;62662;56.788;23.942;2022-11-14T11:47:13;3.60;99.90
57106;DHT22;62662;56.788;23.942;2022-11-14T11:57:36;3.30;99.90
57106;DHT22;62662;56.788;23.942;2022-11-14T12:00:22;4.90;99.90
57106;DHT22;62662;56.788;23.942;2022-11-14T12:03:24;3.30;99.90
57106;DHT22;62662;56.788;23.942;2022-11-14T12:06:23;3.40;99.90
57106;DHT22;62662;56.788;23.942;2022-11-14T12:09:26;3.20;99.90
57106;DHT22;62662;56.788;23.942;2022-11-14T12:15:31;3.30;99.90
57106;DHT22;62662;56.788;23.942;2022-11-14T12:18:43;3.20;99.90
57106;DHT22;62662;56.788;23.942;2022-11-14T12:21:49;3.00;99.90
57106;DHT22;62662;56.788;23.942;2022-11-14T12:30:46;3.50;99.90
57106;DHT22;62662;56.788;23.942;2022-11-14T12:33:42;3.10;99.90
57106;DHT22;62662;56.788;23.942;2022-11-14T12:36:16;3.60;99.90
57106;DHT22;62662;56.788;23.942;2022-11-14T12:39:01;3.60;99.90
57106;DHT22;62662;56.788;23.942;2022-11-14T12:41:33;3.70;99.90
57106;DHT22;62662;56.788;23.942;2022-11-14T12:58:07;3.60;99.90
57106;DHT22;62662;56.788;23.942;2022-11-14T13:04:01;3.40;99.90
57106;DHT22;62662;56.788;23.942;2022-11-14T13:12:29;3.40;99.90
57106;DHT22;62662;56.788;23.942;2022-11-14T13:27:28;3.20;99.90
57106;DHT22;62662;56.788;23.942;2022-11-14T13:30:16;3.20;99.90
57106;DHT22;62662;56.788;23.942;2022-11-14T13:38:30;3.20;99.90
57106;DHT22;62662;56.788;23.942;2022-11-14T13:41:21;3.30;99.90
57106;DHT22;62662;56.788;23.942;2022-11-14T13:44:19;3.20;99.90
57106;DHT22;62662;56.788;23.942;2022-11-14T13:50:15;3.30;99.90
57106;DHT22;62662;56.788;23.942;2022-11-14T13:52:47;3.40;99.90
57106;DHT22;62662;56.788;23.942;2022-11-14T13:58:27;3.20;99.90
57106;DHT22;62662;56.788;23.942;2022-11-14T14:09:25;3.20;99.90
57106;DHT22;62662;56.788;23.942;2022-11-14T14:12:22;3.20;99.90
57106;DHT22;62662;56.788;23.942;2022-11-14T14:17:59;3.10;99.90
57106;DHT22;62662;56.788;23.942;2022-11-14T14:31:44;3.30;99.90
57106;DHT22;62662;56.788;23.942;2022-11-14T14:34:38;3.20;99.90
57106;DHT22;62662;56.788;23.942;2022-11-14T14:37:17;3.20;99.90
57106;DHT22;62662;56.788;23.942;2022-11-14T14:40:01;3.30;99.90
57106;DHT22;62662;56.788;23.942;2022-11-14T14:42:40;3.20;99.90
57106;DHT22;62662;56.788;23.942;2022-11-14T14:45:17;3.30;99.90
57106;DHT22;62662;56.788;23.942;2022-11-14T14:47:49;3.30;99.90
57106;DHT22;62662;56.788;23.942;2022-11-14T14:50:30;3.30;99.90
57106;DHT22;62662;56.788;23.942;2022-11-14T14:53:00;3.40;99.90
57106;DHT22;62662;56.788;23.942;2022-11-14T14:55:30;3.30;99.90
57106;DHT22;62662;56.788;23.942;2022-11-14T15:01:00;3.40;99.90
57106;DHT22;62662;56.788;23.942;2022-11-14T15:03:35;3.30;99.90
57106;DHT22;62662;56.788;23.942;2022-11-14T15:06:06;3.40;99.90
57106;DHT22;62662;56.788;23.942;2022-11-14T15:08:45;3.30;99.90
57106;DHT22;62662;56.788;23.942;2022-11-14T15:11:13;3.40;99.90
57106;DHT22;62662;56.788;23.942;2022-11-14T15:13:41;3.40;99.90
57106;DHT22;62662;56.788;23.942;2022-11-14T15:16:09;3.40;99.90
57106;DHT22;62662;56.788;23.942;2022-11-14T15:18:37;3.40;99.90
57106;DHT22;62662;56.788;23.942;2022-11-14T15:23:43;3.40;99.90
57106;DHT22;62662;56.788;23.942;2022-11-14T15:26:17;3.40;99.90
57106;DHT22;62662;56.788;23.942;2022-11-14T15:28:44;3.40;99.90
57106;DHT22;62662;56.788;23.942;2022-11-14T15:31:19;3.40;99.90
57106;DHT22;62662;56.788;23.942;2022-11-14T15:34:04;3.50;99.90
57106;DHT22;62662;56.788;23.942;2022-11-14T15:36:32;3.50;99.90
57106;DHT22;62662;56.788;23.942;2022-11-14T15:39:18;3.50;99.90
57106;DHT22;62662;56.788;23.942;2022-11-14T15:41:47;3.50;99.90
57106;DHT22;62662;56.788;23.942;2022-11-14T15:44:31;3.50;99.90
57106;DHT22;62662;56.788;23.942;2022-11-14T15:46:59;3.60;99.90
57106;DHT22;62662;56.788;23.942;2022-11-14T15:49:29;3.60;99.90
57106;DHT22;62662;56.788;23.942;2022-11-14T15:51:58;3.60;99.90
57106;DHT22;62662;56.788;23.942;2022-11-14T15:54:27;3.70;99.90
57106;DHT22;62662;56.788;23.942;2022-11-14T15:56:57;3.60;99.90
57106;DHT22;62662;56.788;23.942;2022-11-14T15:59:26;3.70;99.90
57106;DHT22;62662;56.788;23.942;2022-11-14T16:02:09;3.70;99.90
57106;DHT22;62662;56.788;23.942;2022-11-14T16:04:38;3.60;99.90
57106;DHT22;62662;56.788;23.942;2022-11-14T16:07:14;3.50;99.90
57106;DHT22;62662;56.788;23.942;2022-11-14T16:09:43;3.50;99.90
57106;DHT22;62662;56.788;23.942;2022-11-14T16:12:10;3.60;99.90
57106;DHT22;62662;56.788;23.942;2022-11-14T16:14:37;3.60;99.90
57106;DHT22;62662;56.788;23.942;2022-11-14T16:17:15;3.60;99.90
57106;DHT22;62662;56.788;23.942;2022-11-14T16:19:43;3.50;99.90
57106;DHT22;62662;56.788;23.942;2022-11-14T16:22:16;3.50;99.90
57106;DHT22;62662;56.788;23.942;2022-11-14T16:24:43;3.60;99.90
57106;DHT22;62662;56.788;23.942;2022-11-14T16:27:10;3.60;99.90
57106;DHT22;62662;56.788;23.942;2022-11-14T16:29:37;3.70;99.90
57106;DHT22;62662;56.788;23.942;2022-11-14T16:32:04;3.60;99.90
57106;DHT22;62662;56.788;23.942;2022-11-14T16:34:31;3.60;99.90
57106;DHT22;62662;56.788;23.942;2022-11-14T16:37:01;3.50;99.90
57106;DHT22;62662;56.788;23.942;2022-11-14T16:39:28;3.60;99.90
57106;DHT22;62662;56.788;23.942;2022-11-14T16:41:59;3.60;99.90
57106;DHT22;62662;56.788;23.942;2022-11-14T16:44:28;3.50;99.90
57106;DHT22;62662;56.788;23.942;2022-11-14T16:46:56;3.40;99.90
57106;DHT22;62662;56.788;23.942;2022-11-14T16:49:24;3.40;99.90
57106;DHT22;62662;56.788;23.942;2022-11-14T16:51:51;3.50;99.90
57106;DHT22;62662;56.788;23.942;2022-11-14T16:54:21;3.40;99.90
57106;DHT22;62662;56.788;23.942;2022-11-14T16:56:48;3.40;99.90
57106;DHT22;62662;56.788;23.942;2022-11-14T16:59:16;3.40;99.90
57106;DHT22;62662;56.788;23.942;2022-11-14T17:01:43;3.40;99.90
57106;DHT22;62662;56.788;23.942;2022-11-14T17:04:11;3.40;99.90
57106;DHT22;62662;56.788;23.942;2022-11-14T17:06:38;3.40;99.90
57106;DHT22;62662;56.788;23.942;2022-11-14T17:09:05;3.40;99.90
57106;DHT22;62662;56.788;23.942;2022-11-14T17:11:32;3.40;99.90
57106;DHT22;62662;56.788;23.942;2022-11-14T17:14:00;3.40;99.90
57106;DHT22;62662;56.788;23.942;2022-11-14T17:16:27;3.50;99.90
57106;DHT22;62662;56.788;23.942;2022-11-14T17:18:54;3.50;99.90
57106;DHT22;62662;56.788;23.942;2022-11-14T17:21:22;3.60;99.90
57106;DHT22;62662;56.788;23.942;2022-11-14T17:23:54;3.50;99.90
57106;DHT22;62662;56.788;23.942;2022-11-14T17:26:23;3.50;99.90
57106;DHT22;62662;56.788;23.942;2022-11-14T17:28:51;3.60;99.90
57106;DHT22;62662;56.788;23.942;2022-11-14T17:31:19;3.50;99.90
57106;DHT22;62662;56.788;23.942;2022-11-14T17:33:51;3.50;99.90
57106;DHT22;62662;56.788;23.942;2022-11-14T17:36:24;3.50;99.90
57106;DHT22;62662;56.788;23.942;2022-11-14T17:38:54;3.40;99.90
57106;DHT22;62662;56.788;23.942;2022-11-14T17:41:22;3.40;99.90
57106;DHT22;62662;56.788;23.942;2022-11-14T17:43:53;3.40;99.90
57106;DHT22;62662;56.788;23.942;2022-11-14T17:46:23;3.30;99.90
57106;DHT22;62662;56.788;23.942;2022-11-14T17:48:50;3.30;99.90
57106;DHT22;62662;56.788;23.942;2022-11-14T17:51:17;3.40;99.90
57106;DHT22;62662;56.788;23.942;2022-11-14T17:53:45;3.40;99.90
57106;DHT22;62662;56.788;23.942;2022-11-14T17:56:15;3.30;99.90
57106;DHT22;62662;56.788;23.942;2022-11-14T17:58:44;3.40;99.90
57106;DHT22;62662;56.788;23.942;2022-11-14T18:01:17;3.40;99.90
57106;DHT22;62662;56.788;23.942;2022-11-14T18:03:45;3.40;99.90
57106;DHT22;62662;56.788;23.942;2022-11-14T18:06:17;3.40;99.90
57106;DHT22;62662;56.788;23.942;2022-11-14T18:08:45;3.30;99.90
57106;DHT22;62662;56.788;23.942;2022-11-14T18:11:14;3.30;99.90
57106;DHT22;62662;56.788;23.942;2022-11-14T18:13:43;3.20;99.90
57106;DHT22;62662;56.788;23.942;2022-11-14T18:16:16;3.30;99.90
57106;DHT22;62662;56.788;23.942;2022-11-14T18:18:44;3.30;99.90
57106;DHT22;62662;56.788;23.942;2022-11-14T18:21:15;3.30;99.90
57106;DHT22;62662;56.788;23.942;2022-11-14T18:23:43;3.30;99.90
57106;DHT22;62662;56.788;23.942;2022-11-14T18:26:12;3.30;99.90
57106;DHT22;62662;56.788;23.942;2022-11-14T18:28:41;3.30;99.90
57106;DHT22;62662;56.788;23.942;2022-11-14T18:31:09;3.20;99.90
57106;DHT22;62662;56.788;23.942;2022-11-14T18:33:38;3.20;99.90
57106;DHT22;62662;56.788;23.942;2022-11-14T18:36:10;3.20;99.90
57106;DHT22;62662;56.788;23.942;2022-11-14T18:38:42;3.20;99.90
57106;DHT22;62662;56.788;23.942;2022-11-14T18:41:18;3.20;99.90
57106;DHT22;62662;56.788;23.942;2022-11-14T18:43:45;3.20;99.90
57106;DHT22;62662;56.788;23.942;2022-11-14T18:46:15;3.20;99.90
57106;DHT22;62662;56.788;23.942;2022-11-14T18:48:45;3.30;99.90
57106;DHT22;62662;56.788;23.942;2022-11-14T18:51:15;3.20;99.90
57106;DHT22;62662;56.788;23.942;2022-11-14T18:53:43;3.20;99.90
57106;DHT22;62662;56.788;23.942;2022-11-14T18:56:12;3.30;99.90
57106;DHT22;62662;56.788;23.942;2022-11-14T18:58:42;3.30;99.90
57106;DHT22;62662;56.788;23.942;2022-11-14T19:01:19;3.30;99.90
57106;DHT22;62662;56.788;23.942;2022-11-14T19:06:39;3.30;99.90
57106;DHT22;62662;56.788;23.942;2022-11-14T19:09:11;3.30;99.90
57106;DHT22;62662;56.788;23.942;2022-11-14T19:11:42;3.30;99.90
57106;DHT22;62662;56.788;23.942;2022-11-14T19:14:28;3.20;99.90
57106;DHT22;62662;56.788;23.942;2022-11-14T19:16:55;3.20;99.90
57106;DHT22;62662;56.788;23.942;2022-11-14T19:19:23;3.10;99.90
57106;DHT22;62662;56.788;23.942;2022-11-14T19:21:51;3.20;99.90
57106;DHT22;62662;56.788;23.942;2022-11-14T19:24:20;3.20;99.90
57106;DHT22;62662;56.788;23.942;2022-11-14T19:26:48;3.20;99.90
57106;DHT22;62662;56.788;23.942;2022-11-14T19:29:15;3.30;99.90
57106;DHT22;62662;56.788;23.942;2022-11-14T19:31:43;3.20;99.90
57106;DHT22;62662;56.788;23.942;2022-11-14T19:34:11;3.20;99.90
57106;DHT22;62662;56.788;23.942;2022-11-14T19:36:38;3.30;99.90
57106;DHT22;62662;56.788;23.942;2022-11-14T19:39:25;3.30;99.90
57106;DHT22;62662;56.788;23.942;2022-11-14T19:41:52;3.30;99.90
57106;DHT22;62662;56.788;23.942;2022-11-14T19:44:19;3.30;99.90
57106;DHT22;62662;56.788;23.942;2022-11-14T19:46:47;3.30;99.90
57106;DHT22;62662;56.788;23.942;2022-11-14T19:49:14;3.40;99.90
57106;DHT22;62662;56.788;23.942;2022-11-14T19:51:42;3.30;99.90
57106;DHT22;62662;56.788;23.942;2022-11-14T19:54:10;3.30;99.90
57106;DHT22;62662;56.788;23.942;2022-11-14T19:56:37;3.30;99.90
57106;DHT22;62662;56.788;23.942;2022-11-14T19:59:05;3.30;99.90
57106;DHT22;62662;56.788;23.942;2022-11-14T20:01:40;3.40;99.90
57106;DHT22;62662;56.788;23.942;2022-11-14T20:04:11;3.20;99.90
57106;DHT22;62662;56.788;23.942;2022-11-14T20:06:40;3.30;99.90
57106;DHT22;62662;56.788;23.942;2022-11-14T20:09:10;3.40;99.90
57106;DHT22;62662;56.788;23.942;2022-11-14T20:11:37;3.30;99.90
57106;DHT22;62662;56.788;23.942;2022-11-14T20:14:05;3.40;99.90
57106;DHT22;62662;56.788;23.942;2022-11-14T20:16:34;3.30;99.90
57106;DHT22;62662;56.788;23.942;2022-11-14T20:19:02;3.40;99.90
57106;DHT22;62662;56.788;23.942;2022-11-14T20:21:32;3.40;99.90
57106;DHT22;62662;56.788;23.942;2022-11-14T20:23:59;3.40;99.90
57106;DHT22;62662;56.788;23.942;2022-11-14T20:26:27;3.40;99.90